sensor_id;sensor_type;location;lat;lon;timestamp;pressure;altitude;pressure_sealevel;temperature;humidity
5146;BME280;2591;48.144;15.152;2023-06-14T00:02:08;75360.66;;;-144.65;85.95
5146;BME280;2591;48.144;15.152;2023-06-14T00:04:37;75358.59;;;-144.65;87.89
5146;BME280;2591;48.144;15.152;2023-06-14T00:07:06;75358.59;;;-144.65;88.57
5146;BME280;2591;48.144;15.152;2023-06-14T00:09:34;75360.66;;;-144.65;89.50
5146;BME280;2591;48.144;15.152;2023-06-14T00:12:03;75352.50;;;-144.65;90.22
5146;BME280;2591;48.144;15.152;2023-06-14T00:14:33;75344.34;;;-144.65;89.96
5146;BME280;2591;48.144;15.152;2023-06-14T00:17:01;75338.22;;;-144.65;89.43
5146;BME280;2591;48.144;15.152;2023-06-14T00:19:30;75336.19;;;-144.65;88.55
5146;BME280;2591;48.144;15.152;2023-06-14T00:21:59;75328.03;;;-144.65;88.35
5146;BME280;2591;48.144;15.152;2023-06-14T00:24:27;75323.94;;;-144.65;88.47
5146;BME280;2591;48.144;15.152;2023-06-14T00:26:55;75323.94;;;-144.65;88.74
5146;BME280;2591;48.144;15.152;2023-06-14T00:29:23;75319.88;;;-144.65;88.71
5146;BME280;2591;48.144;15.152;2023-06-14T00:31:53;75319.88;;;-144.65;88.45
5146;BME280;2591;48.144;15.152;2023-06-14T00:34:21;75307.66;;;-144.65;88.16
5146;BME280;2591;48.144;15.152;2023-06-14T00:36:49;75303.56;;;-144.65;88.22
5146;BME280;2591;48.144;15.152;2023-06-14T00:39:17;75307.66;;;-144.65;89.84
5146;BME280;2591;48.144;15.152;2023-06-14T00:41:45;75303.56;;;-144.65;89.99
5146;BME280;2591;48.144;15.152;2023-06-14T00:44:16;75303.56;;;-144.65;90.88
5146;BME280;2591;48.144;15.152;2023-06-14T00:46:45;75307.66;;;-144.65;91.13
5146;BME280;2591;48.144;15.152;2023-06-14T00:49:15;75313.75;;;-144.65;91.12
5146;BME280;2591;48.144;15.152;2023-06-14T00:51:45;75315.81;;;-144.65;90.49
5146;BME280;2591;48.144;15.152;2023-06-14T00:54:13;75317.84;;;-144.65;90.36
5146;BME280;2591;48.144;15.152;2023-06-14T00:56:43;75319.88;;;-144.65;90.77
5146;BME280;2591;48.144;15.152;2023-06-14T00:59:11;75321.91;;;-144.65;91.62
5146;BME280;2591;48.144;15.152;2023-06-14T01:01:39;75307.66;;;-144.65;92.51
5146;BME280;2591;48.144;15.152;2023-06-14T01:04:07;75313.75;;;-144.65;93.17
5146;BME280;2591;48.144;15.152;2023-06-14T01:06:50;75319.88;;;-144.65;93.46
5146;BME280;2591;48.144;15.152;2023-06-14T01:09:28;75315.81;;;-144.65;93.85
5146;BME280;2591;48.144;15.152;2023-06-14T01:12:07;75315.81;;;-144.65;94.63
5146;BME280;2591;48.144;15.152;2023-06-14T01:14:38;75319.88;;;-144.65;94.87
5146;BME280;2591;48.144;15.152;2023-06-14T01:17:08;75319.88;;;-144.65;95.01
5146;BME280;2591;48.144;15.152;2023-06-14T01:19:41;75319.88;;;-144.65;95.04
5146;BME280;2591;48.144;15.152;2023-06-14T01:22:12;75319.88;;;-144.65;95.93
5146;BME280;2591;48.144;15.152;2023-06-14T01:24:42;75315.81;;;-144.65;96.32
5146;BME280;2591;48.144;15.152;2023-06-14T01:27:13;75315.81;;;-144.65;96.72
5146;BME280;2591;48.144;15.152;2023-06-14T01:29:42;75311.72;;;-144.65;96.51
5146;BME280;2591;48.144;15.152;2023-06-14T01:32:13;75299.50;;;-144.65;96.26
5146;BME280;2591;48.144;15.152;2023-06-14T01:34:41;75295.41;;;-144.65;95.04
5146;BME280;2591;48.144;15.152;2023-06-14T01:37:10;75275.03;;;-144.65;93.64
5146;BME280;2591;48.144;15.152;2023-06-14T01:39:41;75260.75;;;-144.65;91.94
5146;BME280;2591;48.144;15.152;2023-06-14T01:42:11;75240.38;;;-144.65;90.53
5146;BME280;2591;48.144;15.152;2023-06-14T01:44:42;75230.19;;;-144.65;89.16
5146;BME280;2591;48.144;15.152;2023-06-14T01:47:10;75222.03;;;-144.65;87.78
5146;BME280;2591;48.144;15.152;2023-06-14T01:49:39;75222.03;;;-144.65;87.61
5146;BME280;2591;48.144;15.152;2023-06-14T01:52:07;75220.00;;;-144.65;87.52
5146;BME280;2591;48.144;15.152;2023-06-14T01:54:36;75226.13;;;-144.65;87.84
5146;BME280;2591;48.144;15.152;2023-06-14T01:57:10;75226.13;;;-144.65;88.60
5146;BME280;2591;48.144;15.152;2023-06-14T01:59:38;75228.16;;;-144.65;89.12
5146;BME280;2591;48.144;15.152;2023-06-14T02:02:05;75234.28;;;-144.65;90.06
5146;BME280;2591;48.144;15.152;2023-06-14T02:04:33;75246.50;;;-144.65;90.36
5146;BME280;2591;48.144;15.152;2023-06-14T02:07:01;75250.56;;;-144.65;91.00
5146;BME280;2591;48.144;15.152;2023-06-14T02:09:29;75260.75;;;-144.65;91.30
5146;BME280;2591;48.144;15.152;2023-06-14T02:11:57;75273.00;;;-144.65;91.79
5146;BME280;2591;48.144;15.152;2023-06-14T02:14:26;75277.06;;;-144.65;92.01
5146;BME280;2591;48.144;15.152;2023-06-14T02:16:54;75287.25;;;-144.65;93.08
5146;BME280;2591;48.144;15.152;2023-06-14T02:19:22;75279.09;;;-144.65;93.68
5146;BME280;2591;48.144;15.152;2023-06-14T02:21:50;75283.19;;;-144.65;94.28
5146;BME280;2591;48.144;15.152;2023-06-14T02:24:18;75291.34;;;-144.65;95.06
5146;BME280;2591;48.144;15.152;2023-06-14T02:26:46;75283.19;;;-144.65;95.37
5146;BME280;2591;48.144;15.152;2023-06-14T02:29:15;75287.25;;;-144.65;96.28
5146;BME280;2591;48.144;15.152;2023-06-14T02:31:44;75291.34;;;-144.65;96.46
5146;BME280;2591;48.144;15.152;2023-06-14T02:34:13;75291.34;;;-144.65;96.96
5146;BME280;2591;48.144;15.152;2023-06-14T02:36:43;75299.50;;;-144.65;96.96
5146;BME280;2591;48.144;15.152;2023-06-14T02:39:12;75305.59;;;-144.65;97.88
5146;BME280;2591;48.144;15.152;2023-06-14T02:41:40;75307.66;;;-144.65;98.56
5146;BME280;2591;48.144;15.152;2023-06-14T02:44:09;75315.81;;;-144.65;99.31
5146;BME280;2591;48.144;15.152;2023-06-14T02:46:38;75315.81;;;-144.65;99.22
5146;BME280;2591;48.144;15.152;2023-06-14T02:49:07;75321.91;;;-144.65;99.13
5146;BME280;2591;48.144;15.152;2023-06-14T02:51:35;75317.84;;;-144.65;98.89
5146;BME280;2591;48.144;15.152;2023-06-14T02:54:03;75319.88;;;-144.65;99.19
5146;BME280;2591;48.144;15.152;2023-06-14T02:56:31;75321.91;;;-144.65;99.18
5146;BME280;2591;48.144;15.152;2023-06-14T02:58:59;75317.84;;;-144.65;99.38
5146;BME280;2591;48.144;15.152;2023-06-14T03:01:27;75319.88;;;-144.65;100.00
5146;BME280;2591;48.144;15.152;2023-06-14T03:04:01;75317.84;;;-144.65;100.00
5146;BME280;2591;48.144;15.152;2023-06-14T03:06:31;75315.81;;;-144.65;100.00
5146;BME280;2591;48.144;15.152;2023-06-14T03:09:00;75315.81;;;-144.65;100.00
5146;BME280;2591;48.144;15.152;2023-06-14T03:11:31;75317.84;;;-144.65;100.00
5146;BME280;2591;48.144;15.152;2023-06-14T03:14:00;75313.75;;;-144.65;100.00
5146;BME280;2591;48.144;15.152;2023-06-14T03:16:30;75317.84;;;-144.65;100.00
5146;BME280;2591;48.144;15.152;2023-06-14T03:18:58;75321.91;;;-144.65;100.00
5146;BME280;2591;48.144;15.152;2023-06-14T03:21:26;75319.88;;;-144.65;100.00
5146;BME280;2591;48.144;15.152;2023-06-14T03:23:56;75311.72;;;-144.65;100.00
5146;BME280;2591;48.144;15.152;2023-06-14T03:26:24;75321.91;;;-144.65;100.00
5146;BME280;2591;48.144;15.152;2023-06-14T03:28:52;75323.94;;;-144.65;100.00
5146;BME280;2591;48.144;15.152;2023-06-14T03:31:20;75319.88;;;-144.65;100.00
5146;BME280;2591;48.144;15.152;2023-06-14T03:33:48;75315.81;;;-144.65;100.00
5146;BME280;2591;48.144;15.152;2023-06-14T03:36:16;75311.72;;;-144.65;100.00
5146;BME280;2591;48.144;15.152;2023-06-14T03:38:44;75317.84;;;-144.65;100.00
5146;BME280;2591;48.144;15.152;2023-06-14T03:41:14;75315.81;;;-144.65;100.00
5146;BME280;2591;48.144;15.152;2023-06-14T03:43:41;75319.88;;;-144.65;100.00
5146;BME280;2591;48.144;15.152;2023-06-14T03:46:09;75319.88;;;-144.65;100.00
5146;BME280;2591;48.144;15.152;2023-06-14T03:48:37;75321.91;;;-144.65;100.00
5146;BME280;2591;48.144;15.152;2023-06-14T03:51:05;75317.84;;;-144.65;100.00
5146;BME280;2591;48.144;15.152;2023-06-14T03:53:33;75319.88;;;-144.65;99.86
5146;BME280;2591;48.144;15.152;2023-06-14T03:56:10;75323.94;;;-144.65;100.00
5146;BME280;2591;48.144;15.152;2023-06-14T03:58:39;75326.00;;;-144.65;100.00
5146;BME280;2591;48.144;15.152;2023-06-14T04:01:07;75332.09;;;-144.65;99.83
5146;BME280;2591;48.144;15.152;2023-06-14T04:03:35;75332.09;;;-144.65;100.00
5146;BME280;2591;48.144;15.152;2023-06-14T04:06:04;75328.03;;;-144.65;100.00
5146;BME280;2591;48.144;15.152;2023-06-14T04:08:32;75328.03;;;-144.65;100.00
5146;BME280;2591;48.144;15.152;2023-06-14T04:11:01;75332.09;;;-144.65;100.00
5146;BME280;2591;48.144;15.152;2023-06-14T04:13:29;75334.16;;;-144.65;100.00
5146;BME280;2591;48.144;15.152;2023-06-14T04:15:58;75336.19;;;-144.65;100.00
5146;BME280;2591;48.144;15.152;2023-06-14T04:18:27;75334.16;;;-144.65;100.00
5146;BME280;2591;48.144;15.152;2023-06-14T04:20:54;75330.06;;;-144.65;100.00
5146;BME280;2591;48.144;15.152;2023-06-14T04:23:23;75334.16;;;-144.65;100.00
5146;BME280;2591;48.144;15.152;2023-06-14T04:25:51;75332.09;;;-144.65;100.00
5146;BME280;2591;48.144;15.152;2023-06-14T04:28:19;75323.94;;;-144.65;100.00
5146;BME280;2591;48.144;15.152;2023-06-14T04:30:47;75319.88;;;-144.65;100.00
5146;BME280;2591;48.144;15.152;2023-06-14T04:33:16;75326.00;;;-144.65;99.62
5146;BME280;2591;48.144;15.152;2023-06-14T04:35:44;75315.81;;;-144.65;99.66
5146;BME280;2591;48.144;15.152;2023-06-14T04:38:14;75315.81;;;-144.65;99.53
5146;BME280;2591;48.144;15.152;2023-06-14T04:40:42;75321.91;;;-144.65;99.44
5146;BME280;2591;48.144;15.152;2023-06-14T04:43:11;75319.88;;;-144.65;99.03
5146;BME280;2591;48.144;15.152;2023-06-14T04:45:39;75313.75;;;-144.65;98.41
5146;BME280;2591;48.144;15.152;2023-06-14T04:48:07;75311.72;;;-144.65;97.92
5146;BME280;2591;48.144;15.152;2023-06-14T04:50:38;75301.53;;;-144.65;98.01
5146;BME280;2591;48.144;15.152;2023-06-14T04:53:07;75311.72;;;-144.65;96.28
5146;BME280;2591;48.144;15.152;2023-06-14T04:55:35;75307.66;;;-144.65;95.95
5146;BME280;2591;48.144;15.152;2023-06-14T04:58:03;75307.66;;;-144.65;95.96
5146;BME280;2591;48.144;15.152;2023-06-14T05:00:31;75303.56;;;-144.65;95.74
5146;BME280;2591;48.144;15.152;2023-06-14T05:02:59;75309.69;;;-144.65;95.70
5146;BME280;2591;48.144;15.152;2023-06-14T05:05:27;75301.53;;;-144.65;96.03
5146;BME280;2591;48.144;15.152;2023-06-14T05:07:57;75307.66;;;-144.65;95.54
5146;BME280;2591;48.144;15.152;2023-06-14T05:10:25;75311.72;;;-144.65;95.17
5146;BME280;2591;48.144;15.152;2023-06-14T05:12:52;75311.72;;;-144.65;95.00
5146;BME280;2591;48.144;15.152;2023-06-14T05:15:21;75305.59;;;-144.65;96.47
5146;BME280;2591;48.144;15.152;2023-06-14T05:17:52;75289.31;;;-144.65;96.08
5146;BME280;2591;48.144;15.152;2023-06-14T05:20:22;75262.81;;;-144.65;96.28
5146;BME280;2591;48.144;15.152;2023-06-14T05:22:52;75262.81;;;-144.65;93.10
5146;BME280;2591;48.144;15.152;2023-06-14T05:25:21;75246.50;;;-144.65;94.78
5146;BME280;2591;48.144;15.152;2023-06-14T05:27:49;75222.03;;;-144.65;95.27
5146;BME280;2591;48.144;15.152;2023-06-14T05:30:17;75211.84;;;-144.65;94.29
5146;BME280;2591;48.144;15.152;2023-06-14T05:32:44;75201.66;;;-144.65;92.72
5146;BME280;2591;48.144;15.152;2023-06-14T05:35:13;75191.47;;;-144.65;89.69
5146;BME280;2591;48.144;15.152;2023-06-14T05:37:42;75189.44;;;-144.65;88.17
5146;BME280;2591;48.144;15.152;2023-06-14T05:40:10;75175.16;;;-144.65;86.88
5146;BME280;2591;48.144;15.152;2023-06-14T05:42:40;75162.94;;;-144.65;87.53
5146;BME280;2591;48.144;15.152;2023-06-14T05:45:08;75154.78;;;-144.65;87.19
5146;BME280;2591;48.144;15.152;2023-06-14T05:47:36;75146.63;;;-144.65;87.06
5146;BME280;2591;48.144;15.152;2023-06-14T05:50:05;75148.66;;;-144.65;84.44
5146;BME280;2591;48.144;15.152;2023-06-14T05:52:33;75158.84;;;-144.65;84.63
5146;BME280;2591;48.144;15.152;2023-06-14T05:55:01;75167.00;;;-144.65;84.47
5146;BME280;2591;48.144;15.152;2023-06-14T05:57:30;75177.19;;;-144.65;85.06
5146;BME280;2591;48.144;15.152;2023-06-14T05:59:59;75187.38;;;-144.65;85.47
5146;BME280;2591;48.144;15.152;2023-06-14T06:02:27;75185.34;;;-144.65;85.49
5146;BME280;2591;48.144;15.152;2023-06-14T06:04:55;75185.34;;;-144.65;85.03
5146;BME280;2591;48.144;15.152;2023-06-14T06:07:22;75189.44;;;-144.65;85.32
5146;BME280;2591;48.144;15.152;2023-06-14T06:09:50;75187.38;;;-144.65;84.66
5146;BME280;2591;48.144;15.152;2023-06-14T06:12:18;75183.31;;;-144.65;85.42
5146;BME280;2591;48.144;15.152;2023-06-14T06:14:46;75177.19;;;-144.65;84.26
5146;BME280;2591;48.144;15.152;2023-06-14T06:17:15;75175.16;;;-144.65;85.25
5146;BME280;2591;48.144;15.152;2023-06-14T06:19:44;75185.34;;;-144.65;84.79
5146;BME280;2591;48.144;15.152;2023-06-14T06:22:12;75189.44;;;-144.65;83.44
5146;BME280;2591;48.144;15.152;2023-06-14T06:24:39;75189.44;;;-144.65;83.41
5146;BME280;2591;48.144;15.152;2023-06-14T06:27:09;75193.50;;;-144.65;83.52
5146;BME280;2591;48.144;15.152;2023-06-14T06:29:39;75193.50;;;-144.65;83.71
5146;BME280;2591;48.144;15.152;2023-06-14T06:32:07;75189.44;;;-144.65;84.30
5146;BME280;2591;48.144;15.152;2023-06-14T06:34:36;75189.44;;;-144.65;84.37
5146;BME280;2591;48.144;15.152;2023-06-14T06:37:05;75183.31;;;-144.65;84.57
5146;BME280;2591;48.144;15.152;2023-06-14T06:39:34;75164.97;;;-144.65;83.52
5146;BME280;2591;48.144;15.152;2023-06-14T06:42:02;75136.44;;;-144.65;82.79
5146;BME280;2591;48.144;15.152;2023-06-14T06:44:30;75126.25;;;-144.65;82.23
5146;BME280;2591;48.144;15.152;2023-06-14T06:46:58;75111.97;;;-144.65;80.52
5146;BME280;2591;48.144;15.152;2023-06-14T06:49:26;75103.81;;;-144.65;80.46
5146;BME280;2591;48.144;15.152;2023-06-14T06:52:03;75107.91;;;-144.65;80.32
5146;BME280;2591;48.144;15.152;2023-06-14T06:54:31;75111.97;;;-144.65;81.05
5146;BME280;2591;48.144;15.152;2023-06-14T06:56:59;75103.81;;;-144.65;77.81
5146;BME280;2591;48.144;15.152;2023-06-14T06:59:28;75107.91;;;-144.65;78.70
5146;BME280;2591;48.144;15.152;2023-06-14T07:01:57;75109.94;;;-144.65;80.27
5146;BME280;2591;48.144;15.152;2023-06-14T07:04:25;75111.97;;;-144.65;78.86
5146;BME280;2591;48.144;15.152;2023-06-14T07:06:52;75116.06;;;-144.65;77.54
5146;BME280;2591;48.144;15.152;2023-06-14T07:09:22;75111.97;;;-144.65;75.55
5146;BME280;2591;48.144;15.152;2023-06-14T07:11:51;75116.06;;;-144.65;76.71
5146;BME280;2591;48.144;15.152;2023-06-14T07:14:18;75114.00;;;-144.65;78.41
5146;BME280;2591;48.144;15.152;2023-06-14T07:16:50;75107.91;;;-144.65;78.69
5146;BME280;2591;48.144;15.152;2023-06-14T07:19:18;75111.97;;;-144.65;77.75
5146;BME280;2591;48.144;15.152;2023-06-14T07:21:46;75107.91;;;-144.65;77.60
5146;BME280;2591;48.144;15.152;2023-06-14T07:24:14;75077.31;;;-144.65;77.59
5146;BME280;2591;48.144;15.152;2023-06-14T07:26:43;75056.94;;;-144.65;77.29
5146;BME280;2591;48.144;15.152;2023-06-14T07:29:11;75024.34;;;-144.65;75.33
5146;BME280;2591;48.144;15.152;2023-06-14T07:31:39;75012.09;;;-144.65;74.39
5146;BME280;2591;48.144;15.152;2023-06-14T07:34:07;74997.84;;;-144.65;72.49
5146;BME280;2591;48.144;15.152;2023-06-14T07:36:34;74985.59;;;-144.65;73.37
5146;BME280;2591;48.144;15.152;2023-06-14T07:39:03;74973.38;;;-144.65;73.39
5146;BME280;2591;48.144;15.152;2023-06-14T07:41:32;74953.00;;;-144.65;72.25
5146;BME280;2591;48.144;15.152;2023-06-14T07:44:02;74936.69;;;-144.65;71.61
5146;BME280;2591;48.144;15.152;2023-06-14T07:46:30;74932.63;;;-144.65;72.00
5146;BME280;2591;48.144;15.152;2023-06-14T07:48:58;74906.13;;;-144.65;71.37
5146;BME280;2591;48.144;15.152;2023-06-14T07:51:26;74891.84;;;-144.65;69.90
5146;BME280;2591;48.144;15.152;2023-06-14T07:53:54;74902.03;;;-144.65;70.25
5146;BME280;2591;48.144;15.152;2023-06-14T07:56:22;74881.66;;;-144.65;70.67
5146;BME280;2591;48.144;15.152;2023-06-14T07:58:50;74875.56;;;-144.65;70.27
5146;BME280;2591;48.144;15.152;2023-06-14T08:01:20;74875.56;;;-144.65;70.03
5146;BME280;2591;48.144;15.152;2023-06-14T08:03:48;74851.09;;;-144.65;70.73
5146;BME280;2591;48.144;15.152;2023-06-14T08:06:16;74816.44;;;-144.65;68.77
5146;BME280;2591;48.144;15.152;2023-06-14T08:08:44;74818.47;;;-144.65;69.30
5146;BME280;2591;48.144;15.152;2023-06-14T08:11:12;74810.34;;;-144.65;68.20
5146;BME280;2591;48.144;15.152;2023-06-14T08:13:40;74796.06;;;-144.65;69.20
5146;BME280;2591;48.144;15.152;2023-06-14T08:16:08;74757.34;;;-144.65;67.32
5146;BME280;2591;48.144;15.152;2023-06-14T08:18:37;74745.13;;;-144.65;66.09
5146;BME280;2591;48.144;15.152;2023-06-14T08:21:05;74728.81;;;-144.65;66.48
5146;BME280;2591;48.144;15.152;2023-06-14T08:23:34;74712.50;;;-144.65;66.79
5146;BME280;2591;48.144;15.152;2023-06-14T08:26:02;74704.34;;;-144.65;67.00
5146;BME280;2591;48.144;15.152;2023-06-14T08:28:30;74696.19;;;-144.65;65.17
5146;BME280;2591;48.144;15.152;2023-06-14T08:30:58;74704.34;;;-144.65;67.84
5146;BME280;2591;48.144;15.152;2023-06-14T08:33:26;74651.38;;;-144.65;64.59
5146;BME280;2591;48.144;15.152;2023-06-14T08:35:56;74651.38;;;-144.65;64.61
5146;BME280;2591;48.144;15.152;2023-06-14T08:38:24;74647.28;;;-144.65;64.13
5146;BME280;2591;48.144;15.152;2023-06-14T08:40:52;74655.44;;;-144.65;63.98
5146;BME280;2591;48.144;15.152;2023-06-14T08:43:24;74683.97;;;-144.65;64.16
5146;BME280;2591;48.144;15.152;2023-06-14T08:45:54;74669.72;;;-144.65;65.07
5146;BME280;2591;48.144;15.152;2023-06-14T08:48:26;74626.91;;;-144.65;63.07
5146;BME280;2591;48.144;15.152;2023-06-14T08:50:56;74647.28;;;-144.65;64.58
5146;BME280;2591;48.144;15.152;2023-06-14T08:53:30;74606.53;;;-144.65;63.34
5146;BME280;2591;48.144;15.152;2023-06-14T08:56:02;74578.00;;;-144.65;61.98
5146;BME280;2591;48.144;15.152;2023-06-14T08:58:31;74590.22;;;-144.65;63.63
5146;BME280;2591;48.144;15.152;2023-06-14T09:01:01;74553.56;;;-144.65;61.87
5146;BME280;2591;48.144;15.152;2023-06-14T09:03:29;74561.69;;;-144.65;60.81
5146;BME280;2591;48.144;15.152;2023-06-14T09:05:59;74575.97;;;-144.65;61.92
5146;BME280;2591;48.144;15.152;2023-06-14T09:08:28;74557.63;;;-144.65;61.25
5146;BME280;2591;48.144;15.152;2023-06-14T09:10:57;74537.25;;;-144.65;61.67
5146;BME280;2591;48.144;15.152;2023-06-14T09:13:26;74520.94;;;-144.65;60.62
5146;BME280;2591;48.144;15.152;2023-06-14T09:15:57;74541.31;;;-144.65;60.89
5146;BME280;2591;48.144;15.152;2023-06-14T09:18:34;74525.03;;;-144.65;60.53
5146;BME280;2591;48.144;15.152;2023-06-14T09:21:05;74492.41;;;-144.65;59.91
5146;BME280;2591;48.144;15.152;2023-06-14T09:23:36;74490.38;;;-144.65;59.21
5146;BME280;2591;48.144;15.152;2023-06-14T09:26:08;74504.63;;;-144.65;59.27
5146;BME280;2591;48.144;15.152;2023-06-14T09:28:41;74516.88;;;-144.65;59.54
5146;BME280;2591;48.144;15.152;2023-06-14T09:31:10;74492.41;;;-144.65;59.41
5146;BME280;2591;48.144;15.152;2023-06-14T09:33:39;74486.31;;;-144.65;58.79
5146;BME280;2591;48.144;15.152;2023-06-14T09:36:13;74506.69;;;-144.65;58.35
5146;BME280;2591;48.144;15.152;2023-06-14T09:38:51;74563.75;;;-144.65;59.89
5146;BME280;2591;48.144;15.152;2023-06-14T09:41:19;74598.38;;;-144.65;60.42
5146;BME280;2591;48.144;15.152;2023-06-14T09:43:47;74598.38;;;-144.65;60.31
5146;BME280;2591;48.144;15.152;2023-06-14T09:46:16;74604.50;;;-144.65;61.14
5146;BME280;2591;48.144;15.152;2023-06-14T09:48:44;74553.56;;;-144.65;62.31
5146;BME280;2591;48.144;15.152;2023-06-14T09:51:15;74478.16;;;-144.65;61.42
5146;BME280;2591;48.144;15.152;2023-06-14T09:53:46;74435.34;;;-144.65;59.98
5146;BME280;2591;48.144;15.152;2023-06-14T09:56:20;74423.13;;;-144.65;58.68
5146;BME280;2591;48.144;15.152;2023-06-14T09:58:54;74441.47;;;-144.65;58.95
5146;BME280;2591;48.144;15.152;2023-06-14T10:01:34;74457.78;;;-144.65;57.95
5146;BME280;2591;48.144;15.152;2023-06-14T10:04:04;74459.81;;;-144.65;59.75
5146;BME280;2591;48.144;15.152;2023-06-14T10:06:39;74357.91;;;-144.65;57.12
5146;BME280;2591;48.144;15.152;2023-06-14T10:09:09;74329.38;;;-144.65;55.62
5146;BME280;2591;48.144;15.152;2023-06-14T10:11:37;74337.53;;;-144.65;56.19
5146;BME280;2591;48.144;15.152;2023-06-14T10:14:11;74323.28;;;-144.65;56.91
5146;BME280;2591;48.144;15.152;2023-06-14T10:16:49;74284.56;;;-144.65;55.66
5146;BME280;2591;48.144;15.152;2023-06-14T10:19:22;74251.97;;;-144.65;55.39
5146;BME280;2591;48.144;15.152;2023-06-14T10:21:59;74231.59;;;-144.65;54.43
5146;BME280;2591;48.144;15.152;2023-06-14T10:24:32;74215.28;;;-144.65;54.28
5146;BME280;2591;48.144;15.152;2023-06-14T10:27:00;74207.13;;;-144.65;53.89
5146;BME280;2591;48.144;15.152;2023-06-14T10:29:28;74223.44;;;-144.65;55.41
5146;BME280;2591;48.144;15.152;2023-06-14T10:32:00;74207.13;;;-144.65;52.04
5146;BME280;2591;48.144;15.152;2023-06-14T10:34:31;74209.16;;;-144.65;53.79
5146;BME280;2591;48.144;15.152;2023-06-14T10:37:05;74174.53;;;-144.65;53.31
5146;BME280;2591;48.144;15.152;2023-06-14T10:39:38;74150.06;;;-144.65;52.32
5146;BME280;2591;48.144;15.152;2023-06-14T10:42:08;74154.16;;;-144.65;51.93
5146;BME280;2591;48.144;15.152;2023-06-14T10:44:42;74117.47;;;-144.65;49.39
5146;BME280;2591;48.144;15.152;2023-06-14T10:47:20;74101.16;;;-144.65;49.88
5146;BME280;2591;48.144;15.152;2023-06-14T10:49:51;74052.28;;;-144.65;47.83
5146;BME280;2591;48.144;15.152;2023-06-14T10:52:26;74060.41;;;-144.65;47.41
5146;BME280;2591;48.144;15.152;2023-06-14T10:55:02;74101.16;;;-144.65;48.69
5146;BME280;2591;48.144;15.152;2023-06-14T10:57:33;74074.69;;;-144.65;47.75
5146;BME280;2591;48.144;15.152;2023-06-14T11:00:18;74040.03;;;-144.65;47.57
5146;BME280;2591;48.144;15.152;2023-06-14T11:02:59;74046.16;;;-144.65;48.11
5146;BME280;2591;48.144;15.152;2023-06-14T11:05:48;74042.09;;;-144.65;47.91
5146;BME280;2591;48.144;15.152;2023-06-14T11:08:39;74031.91;;;-144.65;48.10
5146;BME280;2591;48.144;15.152;2023-06-14T11:11:08;74027.81;;;-144.65;49.07
5146;BME280;2591;48.144;15.152;2023-06-14T11:13:38;74019.66;;;-144.65;46.78
5146;BME280;2591;48.144;15.152;2023-06-14T11:16:10;74066.53;;;-144.65;48.12
5146;BME280;2591;48.144;15.152;2023-06-14T11:18:40;74064.50;;;-144.65;47.21
5146;BME280;2591;48.144;15.152;2023-06-14T11:21:08;74109.31;;;-144.65;46.64
5146;BME280;2591;48.144;15.152;2023-06-14T11:23:37;74121.56;;;-144.65;46.95
5146;BME280;2591;48.144;15.152;2023-06-14T11:26:05;74166.38;;;-144.65;48.06
5146;BME280;2591;48.144;15.152;2023-06-14T11:28:37;74186.75;;;-144.65;48.46
5146;BME280;2591;48.144;15.152;2023-06-14T11:31:06;74135.81;;;-144.65;47.33
5146;BME280;2591;48.144;15.152;2023-06-14T11:33:34;74107.28;;;-144.65;49.14
5146;BME280;2591;48.144;15.152;2023-06-14T11:36:03;74027.81;;;-144.65;47.48
5146;BME280;2591;48.144;15.152;2023-06-14T11:38:35;74093.03;;;-144.65;46.15
5146;BME280;2591;48.144;15.152;2023-06-14T11:41:05;74217.31;;;-144.65;48.43
5146;BME280;2591;48.144;15.152;2023-06-14T11:43:32;74247.88;;;-144.65;48.12
5146;BME280;2591;48.144;15.152;2023-06-14T11:46:02;74304.94;;;-144.65;48.48
5146;BME280;2591;48.144;15.152;2023-06-14T11:48:37;74256.03;;;-144.65;49.94
5146;BME280;2591;48.144;15.152;2023-06-14T11:51:05;74190.81;;;-144.65;49.88
5146;BME280;2591;48.144;15.152;2023-06-14T11:53:34;74141.94;;;-144.65;48.73
5146;BME280;2591;48.144;15.152;2023-06-14T11:56:04;74117.47;;;-144.65;47.21
5146;BME280;2591;48.144;15.152;2023-06-14T11:58:33;74121.56;;;-144.65;48.16
5146;BME280;2591;48.144;15.152;2023-06-14T12:01:03;74109.31;;;-144.65;47.42
5146;BME280;2591;48.144;15.152;2023-06-14T12:03:31;74090.97;;;-144.65;46.18
5146;BME280;2591;48.144;15.152;2023-06-14T12:06:05;74099.13;;;-144.65;48.42
5146;BME280;2591;48.144;15.152;2023-06-14T12:08:36;74019.66;;;-144.65;46.43
5146;BME280;2591;48.144;15.152;2023-06-14T12:11:11;74038.00;;;-144.65;47.15
5146;BME280;2591;48.144;15.152;2023-06-14T12:13:40;74050.22;;;-144.65;47.55
5146;BME280;2591;48.144;15.152;2023-06-14T12:16:09;74103.22;;;-144.65;47.19
5146;BME280;2591;48.144;15.152;2023-06-14T12:18:40;74121.56;;;-144.65;48.20
5146;BME280;2591;48.144;15.152;2023-06-14T12:21:10;74133.78;;;-144.65;48.40
5146;BME280;2591;48.144;15.152;2023-06-14T12:23:39;74076.72;;;-144.65;47.43
5146;BME280;2591;48.144;15.152;2023-06-14T12:26:08;74023.75;;;-144.65;46.05
5146;BME280;2591;48.144;15.152;2023-06-14T12:28:39;74019.66;;;-144.65;47.04
5146;BME280;2591;48.144;15.152;2023-06-14T12:31:07;73995.22;;;-144.65;46.56
5146;BME280;2591;48.144;15.152;2023-06-14T12:33:35;73974.84;;;-144.65;45.61
5146;BME280;2591;48.144;15.152;2023-06-14T12:36:04;73968.72;;;-144.65;45.46
5146;BME280;2591;48.144;15.152;2023-06-14T12:38:32;74060.41;;;-144.65;47.44
5146;BME280;2591;48.144;15.152;2023-06-14T12:41:01;74019.66;;;-144.65;47.16
5146;BME280;2591;48.144;15.152;2023-06-14T12:43:30;74001.34;;;-144.65;46.73
5146;BME280;2591;48.144;15.152;2023-06-14T12:45:58;73987.06;;;-144.65;45.72
5146;BME280;2591;48.144;15.152;2023-06-14T12:48:26;74056.34;;;-144.65;46.95
5146;BME280;2591;48.144;15.152;2023-06-14T12:50:56;74011.53;;;-144.65;45.54
5146;BME280;2591;48.144;15.152;2023-06-14T12:53:24;74007.44;;;-144.65;46.45
5146;BME280;2591;48.144;15.152;2023-06-14T12:55:52;73970.78;;;-144.65;46.23
5146;BME280;2591;48.144;15.152;2023-06-14T12:58:20;73974.84;;;-144.65;45.90
5146;BME280;2591;48.144;15.152;2023-06-14T13:00:51;73989.09;;;-144.65;45.90